sensor_id;sensor_type;location;lat;lon;timestamp;P1;durP1;ratioP1;P2;durP2;ratioP2
54191;SDS011;40101;53.002;6.488;2023-10-13T00:03:04;118.20;;;40.45;;
54191;SDS011;40101;53.002;6.488;2023-10-13T00:05:31;108.70;;;38.30;;
54191;SDS011;40101;53.002;6.488;2023-10-13T00:08:01;97.68;;;35.50;;
54191;SDS011;40101;53.002;6.488;2023-10-13T00:10:28;96.07;;;35.80;;
54191;SDS011;40101;53.002;6.488;2023-10-13T00:12:58;109.65;;;38.63;;
54191;SDS011;40101;53.002;6.488;2023-10-13T00:18:05;90.57;;;33.60;;
54191;SDS011;40101;53.002;6.488;2023-10-13T00:20:38;98.25;;;35.28;;
54191;SDS011;40101;53.002;6.488;2023-10-13T00:23:04;89.70;;;36.03;;
54191;SDS011;40101;53.002;6.488;2023-10-13T00:25:31;81.43;;;32.88;;
54191;SDS011;40101;53.002;6.488;2023-10-13T00:28:04;85.53;;;34.58;;
54191;SDS011;40101;53.002;6.488;2023-10-13T00:30:33;91.18;;;33.95;;
54191;SDS011;40101;53.002;6.488;2023-10-13T00:32:59;96.22;;;36.15;;
54191;SDS011;40101;53.002;6.488;2023-10-13T00:35:28;82.97;;;34.55;;
54191;SDS011;40101;53.002;6.488;2023-10-13T00:38:01;89.90;;;35.00;;
54191;SDS011;40101;53.002;6.488;2023-10-13T00:40:38;85.68;;;35.13;;
54191;SDS011;40101;53.002;6.488;2023-10-13T00:43:04;88.07;;;34.78;;
54191;SDS011;40101;53.002;6.488;2023-10-13T00:45:49;89.57;;;34.03;;
54191;SDS011;40101;53.002;6.488;2023-10-13T00:48:26;81.97;;;33.70;;
54191;SDS011;40101;53.002;6.488;2023-10-13T00:51:01;81.85;;;33.45;;
54191;SDS011;40101;53.002;6.488;2023-10-13T00:53:28;74.90;;;33.80;;
54191;SDS011;40101;53.002;6.488;2023-10-13T00:55:58;73.47;;;32.13;;
54191;SDS011;40101;53.002;6.488;2023-10-13T00:58:35;85.32;;;34.70;;
54191;SDS011;40101;53.002;6.488;2023-10-13T01:01:04;75.82;;;32.15;;
54191;SDS011;40101;53.002;6.488;2023-10-13T01:03:54;70.90;;;30.30;;
54191;SDS011;40101;53.002;6.488;2023-10-13T01:06:21;77.45;;;32.70;;
54191;SDS011;40101;53.002;6.488;2023-10-13T01:08:56;76.63;;;31.98;;
54191;SDS011;40101;53.002;6.488;2023-10-13T01:11:26;69.03;;;30.08;;
54191;SDS011;40101;53.002;6.488;2023-10-13T01:13:54;77.78;;;31.10;;
54191;SDS011;40101;53.002;6.488;2023-10-13T01:16:22;75.82;;;31.15;;
54191;SDS011;40101;53.002;6.488;2023-10-13T01:18:51;71.68;;;30.27;;
54191;SDS011;40101;53.002;6.488;2023-10-13T01:21:25;64.90;;;29.02;;
54191;SDS011;40101;53.002;6.488;2023-10-13T01:23:55;71.65;;;29.70;;
54191;SDS011;40101;53.002;6.488;2023-10-13T01:26:20;65.03;;;29.55;;
54191;SDS011;40101;53.002;6.488;2023-10-13T01:28:56;67.22;;;28.65;;
54191;SDS011;40101;53.002;6.488;2023-10-13T01:31:23;77.05;;;28.45;;
54191;SDS011;40101;53.002;6.488;2023-10-13T01:33:56;62.92;;;27.65;;
54191;SDS011;40101;53.002;6.488;2023-10-13T01:36:26;80.53;;;30.48;;
54191;SDS011;40101;53.002;6.488;2023-10-13T01:38:53;73.55;;;30.67;;
54191;SDS011;40101;53.002;6.488;2023-10-13T01:41:20;76.63;;;29.85;;
54191;SDS011;40101;53.002;6.488;2023-10-13T01:43:46;65.28;;;28.00;;
54191;SDS011;40101;53.002;6.488;2023-10-13T01:46:13;80.10;;;30.10;;
54191;SDS011;40101;53.002;6.488;2023-10-13T01:48:41;73.70;;;30.80;;
54191;SDS011;40101;53.002;6.488;2023-10-13T01:51:08;83.10;;;31.40;;
54191;SDS011;40101;53.002;6.488;2023-10-13T01:53:37;80.60;;;30.58;;
54191;SDS011;40101;53.002;6.488;2023-10-13T01:56:06;82.65;;;30.55;;
54191;SDS011;40101;53.002;6.488;2023-10-13T01:58:41;68.68;;;28.65;;
54191;SDS011;40101;53.002;6.488;2023-10-13T02:01:07;78.97;;;30.85;;
54191;SDS011;40101;53.002;6.488;2023-10-13T02:03:35;84.68;;;32.58;;
54191;SDS011;40101;53.002;6.488;2023-10-13T02:06:21;86.22;;;32.28;;
54191;SDS011;40101;53.002;6.488;2023-10-13T02:08:49;75.55;;;31.35;;
54191;SDS011;40101;53.002;6.488;2023-10-13T02:11:22;83.70;;;32.13;;
54191;SDS011;40101;53.002;6.488;2023-10-13T02:13:47;80.50;;;32.58;;
54191;SDS011;40101;53.002;6.488;2023-10-13T02:16:16;78.78;;;32.35;;
54191;SDS011;40101;53.002;6.488;2023-10-13T02:18:47;83.47;;;31.70;;
54191;SDS011;40101;53.002;6.488;2023-10-13T02:21:16;88.35;;;33.22;;
54191;SDS011;40101;53.002;6.488;2023-10-13T02:23:42;79.05;;;32.80;;
54191;SDS011;40101;53.002;6.488;2023-10-13T02:26:11;82.53;;;32.60;;
54191;SDS011;40101;53.002;6.488;2023-10-13T02:28:40;72.15;;;32.05;;
54191;SDS011;40101;53.002;6.488;2023-10-13T02:31:06;87.07;;;35.97;;
54191;SDS011;40101;53.002;6.488;2023-10-13T02:33:32;79.65;;;33.25;;
54191;SDS011;40101;53.002;6.488;2023-10-13T02:36:00;76.03;;;32.45;;
54191;SDS011;40101;53.002;6.488;2023-10-13T02:38:29;78.88;;;31.20;;
54191;SDS011;40101;53.002;6.488;2023-10-13T02:40:59;84.80;;;32.58;;
54191;SDS011;40101;53.002;6.488;2023-10-13T02:43:31;77.90;;;33.67;;
54191;SDS011;40101;53.002;6.488;2023-10-13T02:46:01;73.95;;;32.60;;
54191;SDS011;40101;53.002;6.488;2023-10-13T02:48:29;70.63;;;32.67;;
54191;SDS011;40101;53.002;6.488;2023-10-13T02:51:11;80.50;;;32.92;;
54191;SDS011;40101;53.002;6.488;2023-10-13T02:53:46;71.05;;;31.60;;
54191;SDS011;40101;53.002;6.488;2023-10-13T02:56:13;66.65;;;31.35;;
54191;SDS011;40101;53.002;6.488;2023-10-13T02:58:45;62.88;;;30.10;;
54191;SDS011;40101;53.002;6.488;2023-10-13T03:01:17;68.63;;;30.20;;
54191;SDS011;40101;53.002;6.488;2023-10-13T03:03:44;68.70;;;28.58;;
54191;SDS011;40101;53.002;6.488;2023-10-13T03:06:12;57.92;;;27.05;;
54191;SDS011;40101;53.002;6.488;2023-10-13T03:08:39;59.88;;;25.35;;
54191;SDS011;40101;53.002;6.488;2023-10-13T03:14:18;48.38;;;20.45;;
54191;SDS011;40101;53.002;6.488;2023-10-13T03:17:00;49.28;;;22.00;;
54191;SDS011;40101;53.002;6.488;2023-10-13T03:19:28;58.75;;;24.58;;
54191;SDS011;40101;53.002;6.488;2023-10-13T03:22:05;59.15;;;25.10;;
54191;SDS011;40101;53.002;6.488;2023-10-13T03:24:39;54.55;;;25.60;;
54191;SDS011;40101;53.002;6.488;2023-10-13T03:27:14;64.45;;;26.75;;
54191;SDS011;40101;53.002;6.488;2023-10-13T03:29:43;64.18;;;26.83;;
54191;SDS011;40101;53.002;6.488;2023-10-13T03:32:13;62.17;;;26.30;;
54191;SDS011;40101;53.002;6.488;2023-10-13T03:34:41;62.53;;;25.33;;
54191;SDS011;40101;53.002;6.488;2023-10-13T03:37:17;66.35;;;26.25;;
54191;SDS011;40101;53.002;6.488;2023-10-13T03:39:45;59.67;;;25.77;;
54191;SDS011;40101;53.002;6.488;2023-10-13T03:42:11;61.53;;;26.25;;
54191;SDS011;40101;53.002;6.488;2023-10-13T03:44:47;64.00;;;26.15;;
54191;SDS011;40101;53.002;6.488;2023-10-13T03:47:13;58.92;;;24.42;;
54191;SDS011;40101;53.002;6.488;2023-10-13T03:49:52;61.85;;;24.58;;
54191;SDS011;40101;53.002;6.488;2023-10-13T03:52:38;56.95;;;22.52;;
54191;SDS011;40101;53.002;6.488;2023-10-13T03:55:04;52.80;;;21.85;;
54191;SDS011;40101;53.002;6.488;2023-10-13T03:57:31;46.20;;;20.90;;
54191;SDS011;40101;53.002;6.488;2023-10-13T03:59:59;50.38;;;22.00;;
54191;SDS011;40101;53.002;6.488;2023-10-13T04:02:33;47.00;;;21.02;;
54191;SDS011;40101;53.002;6.488;2023-10-13T04:04:59;52.97;;;21.35;;
54191;SDS011;40101;53.002;6.488;2023-10-13T04:07:32;47.88;;;21.05;;
54191;SDS011;40101;53.002;6.488;2023-10-13T04:10:05;46.35;;;19.95;;
54191;SDS011;40101;53.002;6.488;2023-10-13T04:13:04;48.40;;;20.35;;
54191;SDS011;40101;53.002;6.488;2023-10-13T04:15:48;45.47;;;21.92;;
54191;SDS011;40101;53.002;6.488;2023-10-13T04:18:33;50.60;;;21.48;;
54191;SDS011;40101;53.002;6.488;2023-10-13T04:21:17;43.35;;;22.70;;
54191;SDS011;40101;53.002;6.488;2023-10-13T04:24:21;52.42;;;22.90;;
54191;SDS011;40101;53.002;6.488;2023-10-13T04:27:25;54.20;;;22.40;;
54191;SDS011;40101;53.002;6.488;2023-10-13T04:30:19;50.83;;;22.65;;
54191;SDS011;40101;53.002;6.488;2023-10-13T04:32:52;53.50;;;22.92;;
54191;SDS011;40101;53.002;6.488;2023-10-13T04:35:37;52.72;;;22.38;;
54191;SDS011;40101;53.002;6.488;2023-10-13T04:38:12;58.83;;;23.25;;
54191;SDS011;40101;53.002;6.488;2023-10-13T04:40:45;51.20;;;21.23;;
54191;SDS011;40101;53.002;6.488;2023-10-13T04:43:24;51.97;;;22.63;;
54191;SDS011;40101;53.002;6.488;2023-10-13T04:46:19;57.65;;;22.98;;
54191;SDS011;40101;53.002;6.488;2023-10-13T04:49:11;57.67;;;23.30;;
54191;SDS011;40101;53.002;6.488;2023-10-13T04:51:56;49.47;;;22.02;;
54191;SDS011;40101;53.002;6.488;2023-10-13T04:54:35;48.70;;;20.95;;
54191;SDS011;40101;53.002;6.488;2023-10-13T04:57:15;48.75;;;21.75;;
54191;SDS011;40101;53.002;6.488;2023-10-13T04:59:42;53.88;;;22.60;;
54191;SDS011;40101;53.002;6.488;2023-10-13T05:02:26;51.20;;;21.23;;
54191;SDS011;40101;53.002;6.488;2023-10-13T05:05:10;45.03;;;19.58;;
54191;SDS011;40101;53.002;6.488;2023-10-13T05:07:43;43.35;;;20.33;;
54191;SDS011;40101;53.002;6.488;2023-10-13T05:10:29;42.95;;;17.88;;
54191;SDS011;40101;53.002;6.488;2023-10-13T05:13:14;46.70;;;19.20;;
54191;SDS011;40101;53.002;6.488;2023-10-13T05:15:58;38.40;;;18.33;;
54191;SDS011;40101;53.002;6.488;2023-10-13T05:18:43;37.70;;;17.57;;
54191;SDS011;40101;53.002;6.488;2023-10-13T05:21:28;33.38;;;16.85;;
54191;SDS011;40101;53.002;6.488;2023-10-13T05:24:12;38.30;;;15.63;;
54191;SDS011;40101;53.002;6.488;2023-10-13T05:26:56;29.23;;;14.80;;
54191;SDS011;40101;53.002;6.488;2023-10-13T05:29:41;28.25;;;14.45;;
54191;SDS011;40101;53.002;6.488;2023-10-13T05:32:26;27.17;;;14.10;;
54191;SDS011;40101;53.002;6.488;2023-10-13T05:35:11;23.90;;;13.98;;
54191;SDS011;40101;53.002;6.488;2023-10-13T05:37:56;23.73;;;12.55;;
54191;SDS011;40101;53.002;6.488;2023-10-13T05:43:39;21.67;;;10.52;;
54191;SDS011;40101;53.002;6.488;2023-10-13T05:46:23;16.17;;;10.45;;
54191;SDS011;40101;53.002;6.488;2023-10-13T05:48:52;17.48;;;10.32;;
54191;SDS011;40101;53.002;6.488;2023-10-13T05:51:23;18.30;;;10.80;;
54191;SDS011;40101;53.002;6.488;2023-10-13T05:54:11;16.27;;;10.02;;
54191;SDS011;40101;53.002;6.488;2023-10-13T05:56:41;17.05;;;11.15;;
54191;SDS011;40101;53.002;6.488;2023-10-13T05:59:27;20.48;;;11.38;;
54191;SDS011;40101;53.002;6.488;2023-10-13T06:02:12;17.63;;;10.75;;
54191;SDS011;40101;53.002;6.488;2023-10-13T06:04:57;18.77;;;10.88;;
54191;SDS011;40101;53.002;6.488;2023-10-13T06:07:44;18.20;;;10.18;;
54191;SDS011;40101;53.002;6.488;2023-10-13T06:10:29;16.85;;;10.77;;
54191;SDS011;40101;53.002;6.488;2023-10-13T06:13:13;15.82;;;9.93;;
54191;SDS011;40101;53.002;6.488;2023-10-13T06:15:57;15.60;;;9.70;;
54191;SDS011;40101;53.002;6.488;2023-10-13T06:18:41;13.52;;;9.05;;
54191;SDS011;40101;53.002;6.488;2023-10-13T06:21:26;16.08;;;9.63;;
54191;SDS011;40101;53.002;6.488;2023-10-13T06:24:10;14.65;;;8.65;;
54191;SDS011;40101;53.002;6.488;2023-10-13T06:26:54;15.18;;;8.80;;
54191;SDS011;40101;53.002;6.488;2023-10-13T06:29:39;12.85;;;8.13;;
54191;SDS011;40101;53.002;6.488;2023-10-13T06:32:06;13.52;;;8.30;;
54191;SDS011;40101;53.002;6.488;2023-10-13T06:34:44;13.38;;;8.57;;
54191;SDS011;40101;53.002;6.488;2023-10-13T06:37:16;16.63;;;8.90;;
54191;SDS011;40101;53.002;6.488;2023-10-13T06:39:50;13.52;;;8.30;;
54191;SDS011;40101;53.002;6.488;2023-10-13T06:42:16;11.35;;;8.25;;
54191;SDS011;40101;53.002;6.488;2023-10-13T06:44:44;11.00;;;7.57;;
54191;SDS011;40101;53.002;6.488;2023-10-13T06:47:11;14.63;;;7.57;;
54191;SDS011;40101;53.002;6.488;2023-10-13T06:49:40;12.20;;;7.93;;
54191;SDS011;40101;53.002;6.488;2023-10-13T06:52:08;11.65;;;7.57;;
54191;SDS011;40101;53.002;6.488;2023-10-13T06:54:35;9.43;;;6.97;;
54191;SDS011;40101;53.002;6.488;2023-10-13T06:57:04;8.68;;;5.75;;
54191;SDS011;40101;53.002;6.488;2023-10-13T06:59:34;6.72;;;5.00;;
54191;SDS011;40101;53.002;6.488;2023-10-13T07:02:06;11.82;;;5.90;;
54191;SDS011;40101;53.002;6.488;2023-10-13T07:04:34;8.27;;;5.40;;
54191;SDS011;40101;53.002;6.488;2023-10-13T07:07:07;8.05;;;4.90;;
54191;SDS011;40101;53.002;6.488;2023-10-13T07:09:35;10.93;;;5.68;;
54191;SDS011;40101;53.002;6.488;2023-10-13T07:12:02;10.77;;;5.28;;
54191;SDS011;40101;53.002;6.488;2023-10-13T07:14:31;6.93;;;4.95;;
54191;SDS011;40101;53.002;6.488;2023-10-13T07:17:06;6.95;;;5.22;;
54191;SDS011;40101;53.002;6.488;2023-10-13T07:19:33;7.95;;;5.03;;
54191;SDS011;40101;53.002;6.488;2023-10-13T07:22:02;7.03;;;4.50;;
54191;SDS011;40101;53.002;6.488;2023-10-13T07:24:44;9.70;;;4.70;;
54191;SDS011;40101;53.002;6.488;2023-10-13T07:27:14;12.73;;;5.53;;
54191;SDS011;40101;53.002;6.488;2023-10-13T07:29:54;15.88;;;5.30;;
54191;SDS011;40101;53.002;6.488;2023-10-13T07:32:32;10.93;;;4.72;;
54191;SDS011;40101;53.002;6.488;2023-10-13T07:34:59;14.57;;;5.68;;
54191;SDS011;40101;53.002;6.488;2023-10-13T07:37:35;12.38;;;5.25;;
54191;SDS011;40101;53.002;6.488;2023-10-13T07:40:00;10.77;;;5.07;;
54191;SDS011;40101;53.002;6.488;2023-10-13T07:42:34;12.43;;;4.97;;
54191;SDS011;40101;53.002;6.488;2023-10-13T07:45:04;11.00;;;5.45;;
54191;SDS011;40101;53.002;6.488;2023-10-13T07:47:31;8.80;;;5.80;;
54191;SDS011;40101;53.002;6.488;2023-10-13T07:49:58;10.02;;;5.50;;
54191;SDS011;40101;53.002;6.488;2023-10-13T07:52:24;10.57;;;5.45;;
54191;SDS011;40101;53.002;6.488;2023-10-13T07:54:52;19.15;;;6.50;;
54191;SDS011;40101;53.002;6.488;2023-10-13T07:57:37;11.15;;;4.75;;
54191;SDS011;40101;53.002;6.488;2023-10-13T08:00:18;14.05;;;5.75;;
54191;SDS011;40101;53.002;6.488;2023-10-13T08:03:20;12.15;;;5.28;;
54191;SDS011;40101;53.002;6.488;2023-10-13T08:06:00;14.02;;;5.53;;
54191;SDS011;40101;53.002;6.488;2023-10-13T08:08:44;15.82;;;6.70;;
54191;SDS011;40101;53.002;6.488;2023-10-13T08:11:19;18.55;;;5.85;;
54191;SDS011;40101;53.002;6.488;2023-10-13T08:13:54;18.05;;;7.15;;
54191;SDS011;40101;53.002;6.488;2023-10-13T08:16:24;15.85;;;5.97;;
54191;SDS011;40101;53.002;6.488;2023-10-13T08:19:15;23.70;;;7.00;;
54191;SDS011;40101;53.002;6.488;2023-10-13T08:21:45;14.50;;;6.82;;
54191;SDS011;40101;53.002;6.488;2023-10-13T08:24:32;13.57;;;6.93;;
54191;SDS011;40101;53.002;6.488;2023-10-13T08:27:04;16.00;;;6.60;;
54191;SDS011;40101;53.002;6.488;2023-10-13T08:29:45;15.30;;;7.07;;
54191;SDS011;40101;53.002;6.488;2023-10-13T08:34:55;25.00;;;8.38;;
54191;SDS011;40101;53.002;6.488;2023-10-13T08:37:22;12.45;;;6.85;;
54191;SDS011;40101;53.002;6.488;2023-10-13T08:39:54;13.93;;;7.10;;
54191;SDS011;40101;53.002;6.488;2023-10-13T08:42:36;19.10;;;6.82;;
54191;SDS011;40101;53.002;6.488;2023-10-13T08:45:13;11.88;;;6.07;;
54191;SDS011;40101;53.002;6.488;2023-10-13T08:47:52;16.02;;;7.38;;
54191;SDS011;40101;53.002;6.488;2023-10-13T08:50:48;13.80;;;7.05;;
54191;SDS011;40101;53.002;6.488;2023-10-13T08:53:18;12.65;;;7.00;;
54191;SDS011;40101;53.002;6.488;2023-10-13T08:56:00;12.35;;;7.00;;
54191;SDS011;40101;53.002;6.488;2023-10-13T08:58:36;18.40;;;8.45;;
54191;SDS011;40101;53.002;6.488;2023-10-13T09:01:18;19.65;;;7.75;;
54191;SDS011;40101;53.002;6.488;2023-10-13T09:04:09;18.42;;;8.80;;
54191;SDS011;40101;53.002;6.488;2023-10-13T09:06:52;16.75;;;8.00;;
54191;SDS011;40101;53.002;6.488;2023-10-13T09:09:24;15.35;;;8.32;;
54191;SDS011;40101;53.002;6.488;2023-10-13T09:14:54;21.42;;;8.98;;
54191;SDS011;40101;53.002;6.488;2023-10-13T09:17:28;18.48;;;9.20;;
54191;SDS011;40101;53.002;6.488;2023-10-13T09:20:06;13.98;;;8.23;;
54191;SDS011;40101;53.002;6.488;2023-10-13T09:25:28;22.13;;;8.05;;
54191;SDS011;40101;53.002;6.488;2023-10-13T09:28:01;16.45;;;8.13;;
54191;SDS011;40101;53.002;6.488;2023-10-13T09:30:35;18.50;;;8.20;;
54191;SDS011;40101;53.002;6.488;2023-10-13T09:33:22;18.25;;;8.10;;
54191;SDS011;40101;53.002;6.488;2023-10-13T09:36:15;13.82;;;7.50;;
54191;SDS011;40101;53.002;6.488;2023-10-13T09:38:42;17.75;;;7.90;;
54191;SDS011;40101;53.002;6.488;2023-10-13T09:41:26;20.55;;;8.80;;
54191;SDS011;40101;53.002;6.488;2023-10-13T09:43:55;15.98;;;8.07;;
54191;SDS011;40101;53.002;6.488;2023-10-13T09:46:23;11.80;;;6.40;;
54191;SDS011;40101;53.002;6.488;2023-10-13T09:49:11;15.63;;;6.35;;
54191;SDS011;40101;53.002;6.488;2023-10-13T09:51:47;10.10;;;5.82;;
54191;SDS011;40101;53.002;6.488;2023-10-13T09:54:19;15.18;;;6.20;;
54191;SDS011;40101;53.002;6.488;2023-10-13T09:56:55;12.10;;;6.20;;
54191;SDS011;40101;53.002;6.488;2023-10-13T09:59:33;14.85;;;6.07;;
54191;SDS011;40101;53.002;6.488;2023-10-13T10:02:06;13.60;;;5.90;;
54191;SDS011;40101;53.002;6.488;2023-10-13T10:04:34;15.45;;;6.70;;
54191;SDS011;40101;53.002;6.488;2023-10-13T10:07:10;12.40;;;5.03;;
54191;SDS011;40101;53.002;6.488;2023-10-13T10:09:36;12.88;;;5.43;;
54191;SDS011;40101;53.002;6.488;2023-10-13T10:17:42;12.65;;;5.50;;
54191;SDS011;40101;53.002;6.488;2023-10-13T10:20:09;12.00;;;5.00;;
54191;SDS011;40101;53.002;6.488;2023-10-13T10:22:57;13.60;;;4.95;;
54191;SDS011;40101;53.002;6.488;2023-10-13T10:25:33;14.60;;;6.15;;
54191;SDS011;40101;53.002;6.488;2023-10-13T10:28:06;11.40;;;5.15;;
54191;SDS011;40101;53.002;6.488;2023-10-13T10:30:37;15.50;;;5.72;;
54191;SDS011;40101;53.002;6.488;2023-10-13T10:33:04;14.30;;;4.97;;
54191;SDS011;40101;53.002;6.488;2023-10-13T10:35:38;12.80;;;4.72;;
54191;SDS011;40101;53.002;6.488;2023-10-13T10:38:14;11.77;;;5.30;;
54191;SDS011;40101;53.002;6.488;2023-10-13T10:40:50;12.48;;;4.90;;
54191;SDS011;40101;53.002;6.488;2023-10-13T10:43:18;8.02;;;4.43;;
54191;SDS011;40101;53.002;6.488;2023-10-13T10:45:47;16.17;;;5.72;;
54191;SDS011;40101;53.002;6.488;2023-10-13T10:48:16;12.65;;;4.22;;
54191;SDS011;40101;53.002;6.488;2023-10-13T10:50:53;13.32;;;4.93;;
54191;SDS011;40101;53.002;6.488;2023-10-13T10:53:23;10.75;;;4.28;;
54191;SDS011;40101;53.002;6.488;2023-10-13T10:56:08;9.98;;;4.30;;
54191;SDS011;40101;53.002;6.488;2023-10-13T10:58:56;13.77;;;5.10;;
54191;SDS011;40101;53.002;6.488;2023-10-13T11:01:25;16.65;;;5.00;;
54191;SDS011;40101;53.002;6.488;2023-10-13T11:04:11;11.93;;;4.70;;
54191;SDS011;40101;53.002;6.488;2023-10-13T11:06:50;12.35;;;4.63;;
54191;SDS011;40101;53.002;6.488;2023-10-13T11:09:30;20.83;;;5.38;;
54191;SDS011;40101;53.002;6.488;2023-10-13T11:14:31;12.52;;;4.63;;
54191;SDS011;40101;53.002;6.488;2023-10-13T11:16:58;8.80;;;4.30;;
54191;SDS011;40101;53.002;6.488;2023-10-13T11:19:34;17.08;;;4.70;;
54191;SDS011;40101;53.002;6.488;2023-10-13T11:24:41;13.63;;;4.75;;
54191;SDS011;40101;53.002;6.488;2023-10-13T11:27:14;14.13;;;4.97;;
54191;SDS011;40101;53.002;6.488;2023-10-13T11:29:46;15.38;;;4.88;;
54191;SDS011;40101;53.002;6.488;2023-10-13T11:32:17;15.93;;;4.95;;
54191;SDS011;40101;53.002;6.488;2023-10-13T11:34:45;10.23;;;5.20;;
54191;SDS011;40101;53.002;6.488;2023-10-13T11:37:17;18.55;;;5.53;;
54191;SDS011;40101;53.002;6.488;2023-10-13T11:40:03;10.82;;;4.40;;
54191;SDS011;40101;53.002;6.488;2023-10-13T11:42:37;11.77;;;4.70;;
54191;SDS011;40101;53.002;6.488;2023-10-13T11:45:08;15.68;;;5.45;;
54191;SDS011;40101;53.002;6.488;2023-10-13T11:47:53;16.23;;;5.03;;
54191;SDS011;40101;53.002;6.488;2023-10-13T11:50:25;15.45;;;4.65;;
54191;SDS011;40101;53.002;6.488;2023-10-13T11:55:26;14.95;;;5.20;;
54191;SDS011;40101;53.002;6.488;2023-10-13T11:57:52;15.63;;;5.32;;
54191;SDS011;40101;53.002;6.488;2023-10-13T12:00:18;16.60;;;5.25;;
54191;SDS011;40101;53.002;6.488;2023-10-13T12:03:02;13.23;;;4.65;;
54191;SDS011;40101;53.002;6.488;2023-10-13T12:05:46;17.25;;;6.80;;
54191;SDS011;40101;53.002;6.488;2023-10-13T12:08:28;15.25;;;5.28;;
54191;SDS011;40101;53.002;6.488;2023-10-13T12:10:58;17.55;;;5.15;;
54191;SDS011;40101;53.002;6.488;2023-10-13T12:13:46;12.95;;;7.05;;
54191;SDS011;40101;53.002;6.488;2023-10-13T12:16:12;13.32;;;4.65;;
54191;SDS011;40101;53.002;6.488;2023-10-13T12:18:38;19.02;;;6.88;;
54191;SDS011;40101;53.002;6.488;2023-10-13T12:21:09;14.98;;;6.18;;
54191;SDS011;40101;53.002;6.488;2023-10-13T12:23:38;21.63;;;6.32;;
54191;SDS011;40101;53.002;6.488;2023-10-13T12:26:03;18.55;;;5.47;;
54191;SDS011;40101;53.002;6.488;2023-10-13T12:28:44;13.82;;;5.35;;
54191;SDS011;40101;53.002;6.488;2023-10-13T12:31:18;24.70;;;6.10;;
54191;SDS011;40101;53.002;6.488;2023-10-13T12:33:52;16.98;;;6.10;;
54191;SDS011;40101;53.002;6.488;2023-10-13T12:36:18;21.20;;;6.22;;
54191;SDS011;40101;53.002;6.488;2023-10-13T12:38:46;26.55;;;6.55;;
54191;SDS011;40101;53.002;6.488;2023-10-13T12:41:19;16.40;;;5.35;;
54191;SDS011;40101;53.002;6.488;2023-10-13T12:44:05;16.27;;;5.97;;
54191;SDS011;40101;53.002;6.488;2023-10-13T12:46:50;13.93;;;5.47;;
54191;SDS011;40101;53.002;6.488;2023-10-13T12:49:35;23.48;;;7.45;;
54191;SDS011;40101;53.002;6.488;2023-10-13T12:52:14;13.38;;;6.30;;
54191;SDS011;40101;53.002;6.488;2023-10-13T12:54:59;20.52;;;5.75;;
54191;SDS011;40101;53.002;6.488;2023-10-13T12:57:31;12.73;;;5.10;;
54191;SDS011;40101;53.002;6.488;2023-10-13T12:59:58;16.38;;;5.68;;
54191;SDS011;40101;53.002;6.488;2023-10-13T13:02:24;18.75;;;5.93;;
54191;SDS011;40101;53.002;6.488;2023-10-13T13:04:51;14.55;;;5.97;;
54191;SDS011;40101;53.002;6.488;2023-10-13T13:07:21;15.13;;;6.82;;
54191;SDS011;40101;53.002;6.488;2023-10-13T13:09:47;14.90;;;6.40;;
54191;SDS011;40101;53.002;6.488;2023-10-13T13:12:13;17.25;;;5.97;;
54191;SDS011;40101;53.002;6.488;2023-10-13T13:14:39;16.55;;;5.93;;
54191;SDS011;40101;53.002;6.488;2023-10-13T13:17:11;18.50;;;6.60;;
54191;SDS011;40101;53.002;6.488;2023-10-13T13:19:37;15.23;;;5.90;;
54191;SDS011;40101;53.002;6.488;2023-10-13T13:22:06;18.27;;;6.65;;
54191;SDS011;40101;53.002;6.488;2023-10-13T13:24:39;19.02;;;6.28;;
54191;SDS011;40101;53.002;6.488;2023-10-13T13:27:12;16.17;;;6.95;;
54191;SDS011;40101;53.002;6.488;2023-10-13T13:29:47;12.25;;;6.25;;
54191;SDS011;40101;53.002;6.488;2023-10-13T13:32:13;17.65;;;6.65;;
54191;SDS011;40101;53.002;6.488;2023-10-13T13:34:49;17.25;;;7.10;;
54191;SDS011;40101;53.002;6.488;2023-10-13T13:37:29;27.92;;;7.22;;
54191;SDS011;40101;53.002;6.488;2023-10-13T13:39:56;16.00;;;6.43;;
54191;SDS011;40101;53.002;6.488;2023-10-13T13:42:28;13.75;;;6.25;;
54191;SDS011;40101;53.002;6.488;2023-10-13T13:44:54;15.40;;;6.57;;
54191;SDS011;40101;53.002;6.488;2023-10-13T13:47:24;14.68;;;6.80;;
54191;SDS011;40101;53.002;6.488;2023-10-13T13:49:49;16.70;;;6.70;;
54191;SDS011;40101;53.002;6.488;2023-10-13T13:52:20;15.73;;;7.15;;
54191;SDS011;40101;53.002;6.488;2023-10-13T13:54:58;19.15;;;7.25;;
54191;SDS011;40101;53.002;6.488;2023-10-13T13:57:28;18.58;;;6.40;;
54191;SDS011;40101;53.002;6.488;2023-10-13T13:59:55;17.77;;;6.50;;
54191;SDS011;40101;53.002;6.488;2023-10-13T14:02:22;21.40;;;6.13;;
54191;SDS011;40101;53.002;6.488;2023-10-13T14:04:48;13.63;;;5.90;;
54191;SDS011;40101;53.002;6.488;2023-10-13T14:07:20;13.73;;;6.35;;
54191;SDS011;40101;53.002;6.488;2023-10-13T14:09:49;17.90;;;6.25;;
54191;SDS011;40101;53.002;6.488;2023-10-13T14:12:18;18.23;;;5.95;;
54191;SDS011;40101;53.002;6.488;2023-10-13T14:15:07;15.23;;;6.53;;
54191;SDS011;40101;53.002;6.488;2023-10-13T14:17:45;15.90;;;7.90;;
54191;SDS011;40101;53.002;6.488;2023-10-13T14:20:14;17.33;;;6.53;;
54191;SDS011;40101;53.002;6.488;2023-10-13T14:22:43;19.27;;;6.00;;
54191;SDS011;40101;53.002;6.488;2023-10-13T14:25:13;12.50;;;6.40;;
54191;SDS011;40101;53.002;6.488;2023-10-13T14:27:40;17.80;;;7.63;;
54191;SDS011;40101;53.002;6.488;2023-10-13T14:30:07;16.50;;;7.00;;
54191;SDS011;40101;53.002;6.488;2023-10-13T14:32:32;18.13;;;6.80;;
54191;SDS011;40101;53.002;6.488;2023-10-13T14:35:05;18.33;;;7.03;;
54191;SDS011;40101;53.002;6.488;2023-10-13T14:37:39;17.58;;;6.15;;
54191;SDS011;40101;53.002;6.488;2023-10-13T14:40:05;16.45;;;5.70;;
54191;SDS011;40101;53.002;6.488;2023-10-13T14:42:37;15.32;;;6.53;;
54191;SDS011;40101;53.002;6.488;2023-10-13T14:45:06;14.45;;;6.43;;
54191;SDS011;40101;53.002;6.488;2023-10-13T14:47:37;18.27;;;7.40;;
54191;SDS011;40101;53.002;6.488;2023-10-13T14:50:04;17.50;;;6.90;;
54191;SDS011;40101;53.002;6.488;2023-10-13T14:52:31;18.42;;;8.10;;
54191;SDS011;40101;53.002;6.488;2023-10-13T14:54:57;19.58;;;6.50;;
54191;SDS011;40101;53.002;6.488;2023-10-13T14:57:23;17.00;;;6.53;;
54191;SDS011;40101;53.002;6.488;2023-10-13T14:59:55;13.90;;;6.13;;
54191;SDS011;40101;53.002;6.488;2023-10-13T15:02:22;14.95;;;6.20;;
54191;SDS011;40101;53.002;6.488;2023-10-13T15:04:48;20.58;;;6.80;;
54191;SDS011;40101;53.002;6.488;2023-10-13T15:07:23;14.65;;;6.72;;
54191;SDS011;40101;53.002;6.488;2023-10-13T15:10:08;16.85;;;7.13;;
54191;SDS011;40101;53.002;6.488;2023-10-13T15:12:49;18.60;;;6.25;;
54191;SDS011;40101;53.002;6.488;2023-10-13T15:15:15;11.70;;;6.85;;
54191;SDS011;40101;53.002;6.488;2023-10-13T15:17:44;22.63;;;8.57;;
54191;SDS011;40101;53.002;6.488;2023-10-13T15:20:15;19.77;;;8.85;;
54191;SDS011;40101;53.002;6.488;2023-10-13T15:22:47;20.38;;;8.43;;
54191;SDS011;40101;53.002;6.488;2023-10-13T15:25:12;15.65;;;8.38;;
54191;SDS011;40101;53.002;6.488;2023-10-13T15:28:09;26.00;;;9.40;;
54191;SDS011;40101;53.002;6.488;2023-10-13T15:30:51;19.80;;;7.85;;
54191;SDS011;40101;53.002;6.488;2023-10-13T15:33:22;21.42;;;8.70;;
54191;SDS011;40101;53.002;6.488;2023-10-13T15:35:48;17.73;;;9.02;;
54191;SDS011;40101;53.002;6.488;2023-10-13T15:38:14;19.20;;;8.48;;
54191;SDS011;40101;53.002;6.488;2023-10-13T15:40:40;19.90;;;9.02;;
54191;SDS011;40101;53.002;6.488;2023-10-13T15:43:09;17.75;;;8.40;;